sensor_id;sensor_type;location;lat;lon;timestamp;P1;durP1;ratioP1;P2;durP2;ratioP2
81930;SDS011;71395;43.488;1.472;2023-12-14T00:00:24;4.10;;;0.60;;
81930;SDS011;71395;43.488;1.472;2023-12-14T00:02:49;3.80;;;0.57;;
81930;SDS011;71395;43.488;1.472;2023-12-14T00:05:15;2.90;;;0.70;;
81930;SDS011;71395;43.488;1.472;2023-12-14T00:07:40;1.63;;;0.50;;
81930;SDS011;71395;43.488;1.472;2023-12-14T00:10:06;3.70;;;0.60;;
81930;SDS011;71395;43.488;1.472;2023-12-14T00:12:31;3.67;;;0.60;;
81930;SDS011;71395;43.488;1.472;2023-12-14T00:14:57;2.08;;;0.57;;
81930;SDS011;71395;43.488;1.472;2023-12-14T00:17:22;4.50;;;1.08;;
81930;SDS011;71395;43.488;1.472;2023-12-14T00:19:48;2.78;;;0.70;;
81930;SDS011;71395;43.488;1.472;2023-12-14T00:22:13;2.10;;;0.50;;
81930;SDS011;71395;43.488;1.472;2023-12-14T00:24:39;3.75;;;1.00;;
81930;SDS011;71395;43.488;1.472;2023-12-14T00:27:04;2.47;;;0.60;;
81930;SDS011;71395;43.488;1.472;2023-12-14T00:29:30;5.25;;;0.77;;
81930;SDS011;71395;43.488;1.472;2023-12-14T00:31:55;4.70;;;0.90;;
81930;SDS011;71395;43.488;1.472;2023-12-14T00:34:21;4.47;;;0.70;;
81930;SDS011;71395;43.488;1.472;2023-12-14T00:36:46;3.30;;;0.60;;
81930;SDS011;71395;43.488;1.472;2023-12-14T00:39:12;4.03;;;0.80;;
81930;SDS011;71395;43.488;1.472;2023-12-14T00:41:38;4.65;;;0.80;;
81930;SDS011;71395;43.488;1.472;2023-12-14T00:44:03;3.53;;;0.68;;
81930;SDS011;71395;43.488;1.472;2023-12-14T00:46:29;2.95;;;0.60;;
81930;SDS011;71395;43.488;1.472;2023-12-14T00:48:54;3.33;;;0.77;;
81930;SDS011;71395;43.488;1.472;2023-12-14T00:51:20;3.60;;;0.63;;
81930;SDS011;71395;43.488;1.472;2023-12-14T00:53:45;4.60;;;0.57;;
81930;SDS011;71395;43.488;1.472;2023-12-14T00:56:10;2.53;;;0.68;;
81930;SDS011;71395;43.488;1.472;2023-12-14T00:58:36;2.42;;;0.70;;
81930;SDS011;71395;43.488;1.472;2023-12-14T01:01:01;3.63;;;0.95;;
81930;SDS011;71395;43.488;1.472;2023-12-14T01:03:27;2.90;;;0.70;;
81930;SDS011;71395;43.488;1.472;2023-12-14T01:05:52;4.03;;;0.70;;
81930;SDS011;71395;43.488;1.472;2023-12-14T01:08:18;4.82;;;0.80;;
81930;SDS011;71395;43.488;1.472;2023-12-14T01:10:43;3.22;;;0.70;;
81930;SDS011;71395;43.488;1.472;2023-12-14T01:13:09;2.78;;;0.55;;
81930;SDS011;71395;43.488;1.472;2023-12-14T01:15:35;4.63;;;0.70;;
81930;SDS011;71395;43.488;1.472;2023-12-14T01:18:00;3.13;;;0.60;;
81930;SDS011;71395;43.488;1.472;2023-12-14T01:20:25;3.13;;;0.82;;
81930;SDS011;71395;43.488;1.472;2023-12-14T01:22:51;4.13;;;0.80;;
81930;SDS011;71395;43.488;1.472;2023-12-14T01:25:16;3.50;;;0.90;;
81930;SDS011;71395;43.488;1.472;2023-12-14T01:27:42;2.42;;;0.70;;
81930;SDS011;71395;43.488;1.472;2023-12-14T01:30:07;3.97;;;0.82;;
81930;SDS011;71395;43.488;1.472;2023-12-14T01:32:33;3.33;;;1.10;;
81930;SDS011;71395;43.488;1.472;2023-12-14T01:34:58;2.88;;;0.70;;
81930;SDS011;71395;43.488;1.472;2023-12-14T01:37:24;3.63;;;0.95;;
81930;SDS011;71395;43.488;1.472;2023-12-14T01:39:49;4.85;;;1.10;;
81930;SDS011;71395;43.488;1.472;2023-12-14T01:42:15;2.58;;;0.80;;
81930;SDS011;71395;43.488;1.472;2023-12-14T01:44:40;5.60;;;0.90;;
81930;SDS011;71395;43.488;1.472;2023-12-14T01:47:05;5.07;;;1.00;;
81930;SDS011;71395;43.488;1.472;2023-12-14T01:49:31;5.78;;;1.05;;
81930;SDS011;71395;43.488;1.472;2023-12-14T01:51:56;4.78;;;1.00;;
81930;SDS011;71395;43.488;1.472;2023-12-14T01:54:22;3.65;;;0.90;;
81930;SDS011;71395;43.488;1.472;2023-12-14T01:56:47;4.38;;;0.82;;
81930;SDS011;71395;43.488;1.472;2023-12-14T01:59:13;3.55;;;0.98;;
81930;SDS011;71395;43.488;1.472;2023-12-14T02:01:42;3.13;;;0.82;;
81930;SDS011;71395;43.488;1.472;2023-12-14T02:04:09;3.97;;;1.02;;
81930;SDS011;71395;43.488;1.472;2023-12-14T02:06:36;2.63;;;0.85;;
81930;SDS011;71395;43.488;1.472;2023-12-14T02:09:01;3.25;;;1.10;;
81930;SDS011;71395;43.488;1.472;2023-12-14T02:11:27;3.70;;;1.10;;
81930;SDS011;71395;43.488;1.472;2023-12-14T02:13:53;4.78;;;1.20;;
81930;SDS011;71395;43.488;1.472;2023-12-14T02:16:18;4.68;;;0.98;;
81930;SDS011;71395;43.488;1.472;2023-12-14T02:18:44;5.03;;;1.25;;
81930;SDS011;71395;43.488;1.472;2023-12-14T02:21:10;3.53;;;0.98;;
81930;SDS011;71395;43.488;1.472;2023-12-14T02:23:41;3.55;;;1.08;;
81930;SDS011;71395;43.488;1.472;2023-12-14T02:26:08;4.20;;;0.88;;
81930;SDS011;71395;43.488;1.472;2023-12-14T02:28:34;4.45;;;0.88;;
81930;SDS011;71395;43.488;1.472;2023-12-14T02:30:59;3.67;;;1.02;;
81930;SDS011;71395;43.488;1.472;2023-12-14T02:33:24;3.55;;;1.15;;
81930;SDS011;71395;43.488;1.472;2023-12-14T02:35:50;7.03;;;1.17;;
81930;SDS011;71395;43.488;1.472;2023-12-14T02:38:15;3.63;;;1.38;;
81930;SDS011;71395;43.488;1.472;2023-12-14T02:40:41;5.20;;;1.00;;
81930;SDS011;71395;43.488;1.472;2023-12-14T02:43:06;4.82;;;0.85;;
81930;SDS011;71395;43.488;1.472;2023-12-14T02:45:32;3.63;;;0.85;;
81930;SDS011;71395;43.488;1.472;2023-12-14T02:47:57;2.95;;;0.77;;
81930;SDS011;71395;43.488;1.472;2023-12-14T02:50:22;3.42;;;0.90;;
81930;SDS011;71395;43.488;1.472;2023-12-14T02:52:48;4.13;;;0.90;;
81930;SDS011;71395;43.488;1.472;2023-12-14T02:55:14;4.60;;;0.73;;
81930;SDS011;71395;43.488;1.472;2023-12-14T02:57:39;3.67;;;0.88;;
81930;SDS011;71395;43.488;1.472;2023-12-14T03:00:05;4.38;;;0.98;;
81930;SDS011;71395;43.488;1.472;2023-12-14T03:02:31;4.47;;;0.80;;
81930;SDS011;71395;43.488;1.472;2023-12-14T03:04:56;5.68;;;1.02;;
81930;SDS011;71395;43.488;1.472;2023-12-14T03:07:22;3.78;;;1.00;;
81930;SDS011;71395;43.488;1.472;2023-12-14T03:09:47;4.97;;;1.15;;
81930;SDS011;71395;43.488;1.472;2023-12-14T03:12:12;3.30;;;1.00;;
81930;SDS011;71395;43.488;1.472;2023-12-14T03:14:38;2.88;;;0.80;;
81930;SDS011;71395;43.488;1.472;2023-12-14T03:17:06;3.55;;;0.93;;
81930;SDS011;71395;43.488;1.472;2023-12-14T03:19:37;3.78;;;0.85;;
81930;SDS011;71395;43.488;1.472;2023-12-14T03:22:03;3.42;;;1.00;;
81930;SDS011;71395;43.488;1.472;2023-12-14T03:24:29;3.10;;;0.80;;
81930;SDS011;71395;43.488;1.472;2023-12-14T03:26:54;2.83;;;1.05;;
81930;SDS011;71395;43.488;1.472;2023-12-14T03:29:20;2.88;;;1.30;;
81930;SDS011;71395;43.488;1.472;2023-12-14T03:31:46;3.50;;;1.02;;
81930;SDS011;71395;43.488;1.472;2023-12-14T03:34:12;5.53;;;1.73;;
81930;SDS011;71395;43.488;1.472;2023-12-14T03:36:37;2.78;;;1.15;;
81930;SDS011;71395;43.488;1.472;2023-12-14T03:39:03;4.55;;;1.02;;
81930;SDS011;71395;43.488;1.472;2023-12-14T03:41:28;2.97;;;1.30;;
81930;SDS011;71395;43.488;1.472;2023-12-14T03:43:54;3.00;;;1.10;;
81930;SDS011;71395;43.488;1.472;2023-12-14T03:46:19;4.47;;;1.35;;
81930;SDS011;71395;43.488;1.472;2023-12-14T03:48:45;2.65;;;1.13;;
81930;SDS011;71395;43.488;1.472;2023-12-14T03:51:10;5.13;;;1.23;;
81930;SDS011;71395;43.488;1.472;2023-12-14T03:53:35;5.15;;;1.33;;
81930;SDS011;71395;43.488;1.472;2023-12-14T03:56:01;2.30;;;0.93;;
81930;SDS011;71395;43.488;1.472;2023-12-14T03:58:26;2.03;;;1.00;;
81930;SDS011;71395;43.488;1.472;2023-12-14T04:00:52;3.47;;;0.85;;
81930;SDS011;71395;43.488;1.472;2023-12-14T04:03:17;5.10;;;1.50;;
81930;SDS011;71395;43.488;1.472;2023-12-14T04:05:43;3.20;;;1.02;;
81930;SDS011;71395;43.488;1.472;2023-12-14T04:08:09;2.35;;;1.13;;
81930;SDS011;71395;43.488;1.472;2023-12-14T04:10:35;3.75;;;1.30;;
81930;SDS011;71395;43.488;1.472;2023-12-14T04:13:00;5.07;;;1.17;;
81930;SDS011;71395;43.488;1.472;2023-12-14T04:15:26;4.15;;;1.30;;
81930;SDS011;71395;43.488;1.472;2023-12-14T04:17:51;5.78;;;1.13;;
81930;SDS011;71395;43.488;1.472;2023-12-14T04:20:17;4.45;;;1.13;;
81930;SDS011;71395;43.488;1.472;2023-12-14T04:22:43;4.63;;;1.40;;
81930;SDS011;71395;43.488;1.472;2023-12-14T04:25:09;3.53;;;1.30;;
81930;SDS011;71395;43.488;1.472;2023-12-14T04:27:34;4.68;;;1.40;;
81930;SDS011;71395;43.488;1.472;2023-12-14T04:30:00;5.13;;;1.58;;
81930;SDS011;71395;43.488;1.472;2023-12-14T04:32:25;3.40;;;1.70;;
81930;SDS011;71395;43.488;1.472;2023-12-14T04:34:51;3.47;;;1.33;;
81930;SDS011;71395;43.488;1.472;2023-12-14T04:37:16;3.70;;;1.45;;
81930;SDS011;71395;43.488;1.472;2023-12-14T04:39:42;5.45;;;1.80;;
81930;SDS011;71395;43.488;1.472;2023-12-14T04:42:07;7.20;;;1.65;;
81930;SDS011;71395;43.488;1.472;2023-12-14T04:44:33;6.10;;;1.75;;
81930;SDS011;71395;43.488;1.472;2023-12-14T04:46:58;4.22;;;1.63;;
81930;SDS011;71395;43.488;1.472;2023-12-14T04:49:24;4.45;;;1.55;;
81930;SDS011;71395;43.488;1.472;2023-12-14T04:51:49;4.28;;;1.50;;
81930;SDS011;71395;43.488;1.472;2023-12-14T04:54:15;5.57;;;1.55;;
81930;SDS011;71395;43.488;1.472;2023-12-14T04:56:40;4.93;;;1.60;;
81930;SDS011;71395;43.488;1.472;2023-12-14T04:59:06;3.72;;;1.55;;
81930;SDS011;71395;43.488;1.472;2023-12-14T05:01:32;5.10;;;1.65;;
81930;SDS011;71395;43.488;1.472;2023-12-14T05:03:57;3.58;;;1.67;;
81930;SDS011;71395;43.488;1.472;2023-12-14T05:06:23;6.13;;;1.90;;
81930;SDS011;71395;43.488;1.472;2023-12-14T05:08:48;5.03;;;1.60;;
81930;SDS011;71395;43.488;1.472;2023-12-14T05:11:14;4.20;;;1.60;;
81930;SDS011;71395;43.488;1.472;2023-12-14T05:13:39;4.50;;;1.58;;
81930;SDS011;71395;43.488;1.472;2023-12-14T05:16:05;4.60;;;1.70;;
81930;SDS011;71395;43.488;1.472;2023-12-14T05:18:32;7.03;;;1.65;;
81930;SDS011;71395;43.488;1.472;2023-12-14T05:20:57;4.82;;;1.63;;
81930;SDS011;71395;43.488;1.472;2023-12-14T05:23:24;5.47;;;1.50;;
81930;SDS011;71395;43.488;1.472;2023-12-14T05:25:50;3.25;;;1.50;;
81930;SDS011;71395;43.488;1.472;2023-12-14T05:28:15;5.88;;;1.70;;
81930;SDS011;71395;43.488;1.472;2023-12-14T05:30:41;6.22;;;1.63;;
81930;SDS011;71395;43.488;1.472;2023-12-14T05:33:06;4.70;;;1.67;;
81930;SDS011;71395;43.488;1.472;2023-12-14T05:35:32;5.40;;;1.50;;
81930;SDS011;71395;43.488;1.472;2023-12-14T05:37:57;4.60;;;1.55;;
81930;SDS011;71395;43.488;1.472;2023-12-14T05:40:23;7.95;;;1.40;;
81930;SDS011;71395;43.488;1.472;2023-12-14T05:42:48;5.07;;;1.25;;
81930;SDS011;71395;43.488;1.472;2023-12-14T05:45:14;4.43;;;1.40;;
81930;SDS011;71395;43.488;1.472;2023-12-14T05:47:40;6.20;;;1.63;;
81930;SDS011;71395;43.488;1.472;2023-12-14T05:50:06;4.00;;;1.60;;
81930;SDS011;71395;43.488;1.472;2023-12-14T05:52:34;6.32;;;1.67;;
81930;SDS011;71395;43.488;1.472;2023-12-14T05:54:59;3.55;;;1.48;;
81930;SDS011;71395;43.488;1.472;2023-12-14T05:57:25;4.90;;;1.50;;
81930;SDS011;71395;43.488;1.472;2023-12-14T05:59:50;4.13;;;1.60;;
81930;SDS011;71395;43.488;1.472;2023-12-14T06:02:16;5.78;;;1.60;;
81930;SDS011;71395;43.488;1.472;2023-12-14T06:04:41;6.18;;;1.55;;
81930;SDS011;71395;43.488;1.472;2023-12-14T06:07:07;7.50;;;1.60;;
81930;SDS011;71395;43.488;1.472;2023-12-14T06:09:32;6.80;;;2.05;;
81930;SDS011;71395;43.488;1.472;2023-12-14T06:12:02;6.97;;;1.65;;
81930;SDS011;71395;43.488;1.472;2023-12-14T06:14:29;4.47;;;1.33;;
81930;SDS011;71395;43.488;1.472;2023-12-14T06:16:55;3.75;;;1.50;;
81930;SDS011;71395;43.488;1.472;2023-12-14T06:19:20;7.68;;;1.80;;
81930;SDS011;71395;43.488;1.472;2023-12-14T06:21:46;5.90;;;1.80;;
81930;SDS011;71395;43.488;1.472;2023-12-14T06:24:12;5.03;;;1.77;;
81930;SDS011;71395;43.488;1.472;2023-12-14T06:26:41;9.18;;;1.85;;
81930;SDS011;71395;43.488;1.472;2023-12-14T06:29:08;6.35;;;1.98;;
81930;SDS011;71395;43.488;1.472;2023-12-14T06:31:34;4.60;;;1.30;;
81930;SDS011;71395;43.488;1.472;2023-12-14T06:33:59;6.10;;;1.60;;
81930;SDS011;71395;43.488;1.472;2023-12-14T06:36:28;4.88;;;1.50;;
81930;SDS011;71395;43.488;1.472;2023-12-14T06:38:54;6.30;;;1.55;;
81930;SDS011;71395;43.488;1.472;2023-12-14T06:41:21;3.88;;;1.60;;
81930;SDS011;71395;43.488;1.472;2023-12-14T06:43:47;6.55;;;1.20;;
81930;SDS011;71395;43.488;1.472;2023-12-14T06:46:13;4.60;;;1.30;;
81930;SDS011;71395;43.488;1.472;2023-12-14T06:48:39;8.00;;;1.60;;
81930;SDS011;71395;43.488;1.472;2023-12-14T06:51:04;5.03;;;1.75;;
81930;SDS011;71395;43.488;1.472;2023-12-14T06:53:30;6.63;;;1.98;;
81930;SDS011;71395;43.488;1.472;2023-12-14T06:55:55;5.63;;;1.60;;
81930;SDS011;71395;43.488;1.472;2023-12-14T06:58:21;6.65;;;1.63;;
81930;SDS011;71395;43.488;1.472;2023-12-14T07:00:46;5.07;;;1.50;;
81930;SDS011;71395;43.488;1.472;2023-12-14T07:03:12;5.00;;;1.33;;
81930;SDS011;71395;43.488;1.472;2023-12-14T07:05:38;7.65;;;1.88;;
81930;SDS011;71395;43.488;1.472;2023-12-14T07:08:04;5.65;;;1.60;;
81930;SDS011;71395;43.488;1.472;2023-12-14T07:10:30;4.78;;;1.35;;
81930;SDS011;71395;43.488;1.472;2023-12-14T07:12:55;4.47;;;1.20;;
81930;SDS011;71395;43.488;1.472;2023-12-14T07:15:21;6.32;;;1.63;;
81930;SDS011;71395;43.488;1.472;2023-12-14T07:17:46;5.05;;;1.35;;
81930;SDS011;71395;43.488;1.472;2023-12-14T07:20:12;6.25;;;1.58;;
81930;SDS011;71395;43.488;1.472;2023-12-14T07:22:38;5.57;;;1.80;;
81930;SDS011;71395;43.488;1.472;2023-12-14T07:25:03;4.85;;;1.55;;
81930;SDS011;71395;43.488;1.472;2023-12-14T07:27:29;5.97;;;1.30;;
81930;SDS011;71395;43.488;1.472;2023-12-14T07:29:55;4.55;;;1.30;;
81930;SDS011;71395;43.488;1.472;2023-12-14T07:32:20;2.80;;;1.23;;
81930;SDS011;71395;43.488;1.472;2023-12-14T07:34:46;3.47;;;1.30;;
81930;SDS011;71395;43.488;1.472;2023-12-14T07:37:12;4.70;;;1.20;;
81930;SDS011;71395;43.488;1.472;2023-12-14T07:39:38;6.95;;;1.35;;
81930;SDS011;71395;43.488;1.472;2023-12-14T07:42:04;12.48;;;1.70;;
81930;SDS011;71395;43.488;1.472;2023-12-14T07:44:30;4.80;;;1.40;;
81930;SDS011;71395;43.488;1.472;2023-12-14T07:46:56;4.78;;;1.40;;
81930;SDS011;71395;43.488;1.472;2023-12-14T07:49:25;3.50;;;1.30;;
81930;SDS011;71395;43.488;1.472;2023-12-14T07:51:50;5.30;;;1.60;;
81930;SDS011;71395;43.488;1.472;2023-12-14T07:54:16;6.60;;;1.30;;
81930;SDS011;71395;43.488;1.472;2023-12-14T07:56:42;5.63;;;1.30;;
81930;SDS011;71395;43.488;1.472;2023-12-14T07:59:08;6.35;;;1.40;;
81930;SDS011;71395;43.488;1.472;2023-12-14T08:01:34;5.28;;;1.40;;
81930;SDS011;71395;43.488;1.472;2023-12-14T08:03:59;4.85;;;1.33;;
81930;SDS011;71395;43.488;1.472;2023-12-14T08:06:25;6.35;;;1.85;;
81930;SDS011;71395;43.488;1.472;2023-12-14T08:08:50;5.80;;;1.50;;
81930;SDS011;71395;43.488;1.472;2023-12-14T08:11:16;7.43;;;1.88;;
81930;SDS011;71395;43.488;1.472;2023-12-14T08:13:42;6.68;;;1.70;;
81930;SDS011;71395;43.488;1.472;2023-12-14T08:16:07;4.28;;;1.35;;
81930;SDS011;71395;43.488;1.472;2023-12-14T08:18:33;5.43;;;1.55;;
81930;SDS011;71395;43.488;1.472;2023-12-14T08:20:59;10.70;;;1.90;;
81930;SDS011;71395;43.488;1.472;2023-12-14T08:23:24;8.10;;;2.10;;
81930;SDS011;71395;43.488;1.472;2023-12-14T08:25:52;7.57;;;2.70;;
81930;SDS011;71395;43.488;1.472;2023-12-14T08:28:22;9.60;;;2.10;;
81930;SDS011;71395;43.488;1.472;2023-12-14T08:30:48;7.35;;;1.42;;
81930;SDS011;71395;43.488;1.472;2023-12-14T08:33:14;5.88;;;1.50;;
81930;SDS011;71395;43.488;1.472;2023-12-14T08:35:39;5.43;;;1.20;;
81930;SDS011;71395;43.488;1.472;2023-12-14T08:38:04;6.88;;;1.17;;
81930;SDS011;71395;43.488;1.472;2023-12-14T08:40:30;5.90;;;1.10;;
81930;SDS011;71395;43.488;1.472;2023-12-14T08:42:56;4.10;;;1.23;;
81930;SDS011;71395;43.488;1.472;2023-12-14T08:45:22;5.05;;;1.10;;
81930;SDS011;71395;43.488;1.472;2023-12-14T08:47:48;7.32;;;1.50;;
81930;SDS011;71395;43.488;1.472;2023-12-14T08:50:13;8.32;;;1.50;;
81930;SDS011;71395;43.488;1.472;2023-12-14T08:52:39;5.00;;;1.10;;
81930;SDS011;71395;43.488;1.472;2023-12-14T08:55:04;5.32;;;1.40;;
81930;SDS011;71395;43.488;1.472;2023-12-14T08:57:30;4.45;;;1.45;;
81930;SDS011;71395;43.488;1.472;2023-12-14T08:59:56;5.90;;;1.33;;
81930;SDS011;71395;43.488;1.472;2023-12-14T09:02:21;5.40;;;1.50;;
81930;SDS011;71395;43.488;1.472;2023-12-14T09:04:47;8.25;;;1.40;;
81930;SDS011;71395;43.488;1.472;2023-12-14T09:07:12;7.07;;;1.25;;
81930;SDS011;71395;43.488;1.472;2023-12-14T09:09:38;5.10;;;1.58;;
81930;SDS011;71395;43.488;1.472;2023-12-14T09:12:03;4.60;;;1.58;;
81930;SDS011;71395;43.488;1.472;2023-12-14T09:14:29;8.00;;;1.60;;
81930;SDS011;71395;43.488;1.472;2023-12-14T09:16:55;5.47;;;1.50;;
81930;SDS011;71395;43.488;1.472;2023-12-14T09:19:21;4.00;;;1.40;;
81930;SDS011;71395;43.488;1.472;2023-12-14T09:21:46;5.93;;;1.27;;
81930;SDS011;71395;43.488;1.472;2023-12-14T09:24:12;7.45;;;1.52;;
81930;SDS011;71395;43.488;1.472;2023-12-14T09:26:37;6.35;;;1.10;;
81930;SDS011;71395;43.488;1.472;2023-12-14T09:29:03;4.82;;;1.13;;
81930;SDS011;71395;43.488;1.472;2023-12-14T09:31:28;5.50;;;1.40;;
81930;SDS011;71395;43.488;1.472;2023-12-14T09:33:54;5.50;;;1.17;;
81930;SDS011;71395;43.488;1.472;2023-12-14T09:36:19;3.38;;;1.13;;
81930;SDS011;71395;43.488;1.472;2023-12-14T09:38:45;4.50;;;1.13;;
81930;SDS011;71395;43.488;1.472;2023-12-14T09:41:11;5.28;;;1.33;;
81930;SDS011;71395;43.488;1.472;2023-12-14T09:43:37;3.63;;;0.90;;
81930;SDS011;71395;43.488;1.472;2023-12-14T09:46:02;6.68;;;1.40;;
81930;SDS011;71395;43.488;1.472;2023-12-14T09:48:29;5.05;;;1.23;;
81930;SDS011;71395;43.488;1.472;2023-12-14T09:50:55;4.95;;;1.10;;
81930;SDS011;71395;43.488;1.472;2023-12-14T09:53:20;7.75;;;2.22;;
81930;SDS011;71395;43.488;1.472;2023-12-14T09:55:46;6.63;;;2.50;;
81930;SDS011;71395;43.488;1.472;2023-12-14T09:58:11;5.55;;;1.85;;
81930;SDS011;71395;43.488;1.472;2023-12-14T10:00:41;5.72;;;1.40;;
81930;SDS011;71395;43.488;1.472;2023-12-14T10:03:41;7.20;;;1.40;;
81930;SDS011;71395;43.488;1.472;2023-12-14T10:05:59;5.85;;;1.25;;
81930;SDS011;71395;43.488;1.472;2023-12-14T10:08:27;6.10;;;1.55;;
81930;SDS011;71395;43.488;1.472;2023-12-14T10:10:53;6.25;;;0.88;;
81930;SDS011;71395;43.488;1.472;2023-12-14T10:13:21;2.90;;;1.13;;
81930;SDS011;71395;43.488;1.472;2023-12-14T10:16:00;6.15;;;1.63;;
81930;SDS011;71395;43.488;1.472;2023-12-14T10:18:26;4.40;;;1.00;;
81930;SDS011;71395;43.488;1.472;2023-12-14T10:20:51;8.88;;;3.70;;
81930;SDS011;71395;43.488;1.472;2023-12-14T10:23:18;6.45;;;1.92;;
81930;SDS011;71395;43.488;1.472;2023-12-14T10:25:43;6.75;;;1.58;;
81930;SDS011;71395;43.488;1.472;2023-12-14T10:28:15;3.78;;;1.00;;
81930;SDS011;71395;43.488;1.472;2023-12-14T10:30:42;5.22;;;1.20;;
81930;SDS011;71395;43.488;1.472;2023-12-14T10:33:07;4.45;;;1.20;;
81930;SDS011;71395;43.488;1.472;2023-12-14T10:35:33;4.00;;;1.20;;
81930;SDS011;71395;43.488;1.472;2023-12-14T10:38:05;5.38;;;1.30;;
81930;SDS011;71395;43.488;1.472;2023-12-14T10:40:32;5.97;;;1.42;;
81930;SDS011;71395;43.488;1.472;2023-12-14T10:42:58;5.10;;;1.20;;
81930;SDS011;71395;43.488;1.472;2023-12-14T10:45:26;5.15;;;1.52;;
81930;SDS011;71395;43.488;1.472;2023-12-14T10:47:55;8.45;;;1.70;;
81930;SDS011;71395;43.488;1.472;2023-12-14T10:50:23;5.43;;;1.00;;
81930;SDS011;71395;43.488;1.472;2023-12-14T10:52:50;4.43;;;1.20;;
81930;SDS011;71395;43.488;1.472;2023-12-14T10:55:30;4.82;;;1.40;;
81930;SDS011;71395;43.488;1.472;2023-12-14T10:58:00;5.60;;;1.20;;
81930;SDS011;71395;43.488;1.472;2023-12-14T11:00:28;4.57;;;0.95;;
81930;SDS011;71395;43.488;1.472;2023-12-14T11:02:54;10.30;;;1.35;;
81930;SDS011;71395;43.488;1.472;2023-12-14T11:05:21;3.53;;;1.38;;
81930;SDS011;71395;43.488;1.472;2023-12-14T11:07:54;3.90;;;1.40;;
81930;SDS011;71395;43.488;1.472;2023-12-14T11:10:38;7.25;;;1.27;;
81930;SDS011;71395;43.488;1.472;2023-12-14T11:15:39;4.18;;;1.40;;
81930;SDS011;71395;43.488;1.472;2023-12-14T11:23:10;4.25;;;1.02;;
81930;SDS011;71395;43.488;1.472;2023-12-14T11:25:40;5.55;;;1.25;;
81930;SDS011;71395;43.488;1.472;2023-12-14T11:28:06;4.32;;;1.15;;
81930;SDS011;71395;43.488;1.472;2023-12-14T11:30:33;4.30;;;1.00;;
81930;SDS011;71395;43.488;1.472;2023-12-14T11:33:00;6.10;;;1.67;;
81930;SDS011;71395;43.488;1.472;2023-12-14T11:35:26;5.50;;;1.00;;
81930;SDS011;71395;43.488;1.472;2023-12-14T11:37:51;3.53;;;1.05;;
81930;SDS011;71395;43.488;1.472;2023-12-14T11:40:17;3.08;;;1.00;;
81930;SDS011;71395;43.488;1.472;2023-12-14T11:43:00;6.25;;;1.05;;
81930;SDS011;71395;43.488;1.472;2023-12-14T11:45:26;2.88;;;1.10;;
81930;SDS011;71395;43.488;1.472;2023-12-14T11:47:53;5.22;;;1.33;;
81930;SDS011;71395;43.488;1.472;2023-12-14T11:50:18;3.85;;;1.10;;
81930;SDS011;71395;43.488;1.472;2023-12-14T11:52:45;6.32;;;1.40;;
81930;SDS011;71395;43.488;1.472;2023-12-14T11:55:11;6.65;;;1.30;;
81930;SDS011;71395;43.488;1.472;2023-12-14T11:57:36;2.90;;;1.10;;
81930;SDS011;71395;43.488;1.472;2023-12-14T12:00:02;4.63;;;1.58;;
81930;SDS011;71395;43.488;1.472;2023-12-14T12:02:28;3.15;;;0.90;;
81930;SDS011;71395;43.488;1.472;2023-12-14T12:04:54;3.58;;;0.82;;
81930;SDS011;71395;43.488;1.472;2023-12-14T12:07:19;2.90;;;1.00;;
81930;SDS011;71395;43.488;1.472;2023-12-14T12:09:46;4.32;;;1.17;;
81930;SDS011;71395;43.488;1.472;2023-12-14T12:12:12;3.40;;;1.00;;
81930;SDS011;71395;43.488;1.472;2023-12-14T12:14:38;5.85;;;1.60;;
81930;SDS011;71395;43.488;1.472;2023-12-14T12:17:05;4.25;;;1.00;;
81930;SDS011;71395;43.488;1.472;2023-12-14T12:19:32;3.50;;;0.98;;
81930;SDS011;71395;43.488;1.472;2023-12-14T12:21:59;3.83;;;1.00;;
81930;SDS011;71395;43.488;1.472;2023-12-14T12:24:25;3.20;;;0.90;;
81930;SDS011;71395;43.488;1.472;2023-12-14T12:26:50;4.22;;;0.90;;
81930;SDS011;71395;43.488;1.472;2023-12-14T12:29:16;3.03;;;0.75;;
81930;SDS011;71395;43.488;1.472;2023-12-14T12:31:41;3.83;;;0.90;;
81930;SDS011;71395;43.488;1.472;2023-12-14T12:34:08;4.25;;;0.73;;
81930;SDS011;71395;43.488;1.472;2023-12-14T12:36:33;3.25;;;0.75;;
81930;SDS011;71395;43.488;1.472;2023-12-14T12:38:59;4.85;;;1.30;;
81930;SDS011;71395;43.488;1.472;2023-12-14T12:41:25;3.35;;;0.73;;
81930;SDS011;71395;43.488;1.472;2023-12-14T12:43:50;4.22;;;1.02;;
81930;SDS011;71395;43.488;1.472;2023-12-14T12:46:16;3.38;;;0.82;;
81930;SDS011;71395;43.488;1.472;2023-12-14T12:48:41;4.25;;;0.90;;
81930;SDS011;71395;43.488;1.472;2023-12-14T12:51:06;5.15;;;1.10;;
81930;SDS011;71395;43.488;1.472;2023-12-14T12:53:32;3.97;;;0.70;;
81930;SDS011;71395;43.488;1.472;2023-12-14T12:55:58;5.38;;;0.90;;
81930;SDS011;71395;43.488;1.472;2023-12-14T12:58:24;4.63;;;0.90;;
81930;SDS011;71395;43.488;1.472;2023-12-14T13:00:49;4.50;;;0.80;;
81930;SDS011;71395;43.488;1.472;2023-12-14T13:03:15;4.32;;;0.88;;
81930;SDS011;71395;43.488;1.472;2023-12-14T13:05:40;3.25;;;0.90;;
81930;SDS011;71395;43.488;1.472;2023-12-14T13:08:07;2.95;;;0.90;;
81930;SDS011;71395;43.488;1.472;2023-12-14T13:10:32;3.35;;;0.70;;
81930;SDS011;71395;43.488;1.472;2023-12-14T13:12:58;3.85;;;0.98;;
81930;SDS011;71395;43.488;1.472;2023-12-14T13:15:24;3.33;;;0.80;;
81930;SDS011;71395;43.488;1.472;2023-12-14T13:17:50;4.38;;;1.15;;
81930;SDS011;71395;43.488;1.472;2023-12-14T13:20:16;4.20;;;1.23;;
81930;SDS011;71395;43.488;1.472;2023-12-14T13:22:41;4.10;;;0.73;;
81930;SDS011;71395;43.488;1.472;2023-12-14T13:25:07;6.40;;;1.00;;
81930;SDS011;71395;43.488;1.472;2023-12-14T13:27:32;4.65;;;1.10;;
81930;SDS011;71395;43.488;1.472;2023-12-14T13:30:01;3.92;;;1.15;;
81930;SDS011;71395;43.488;1.472;2023-12-14T13:32:27;4.30;;;0.80;;
81930;SDS011;71395;43.488;1.472;2023-12-14T13:34:52;4.00;;;1.00;;
81930;SDS011;71395;43.488;1.472;2023-12-14T13:37:17;5.20;;;1.13;;
81930;SDS011;71395;43.488;1.472;2023-12-14T13:39:43;4.00;;;0.98;;
81930;SDS011;71395;43.488;1.472;2023-12-14T13:42:08;3.53;;;0.85;;
81930;SDS011;71395;43.488;1.472;2023-12-14T13:44:34;5.80;;;0.98;;
81930;SDS011;71395;43.488;1.472;2023-12-14T13:47:08;3.25;;;0.90;;
81930;SDS011;71395;43.488;1.472;2023-12-14T13:49:33;4.28;;;1.13;;
81930;SDS011;71395;43.488;1.472;2023-12-14T13:51:59;3.05;;;0.73;;
81930;SDS011;71395;43.488;1.472;2023-12-14T13:54:24;3.85;;;0.90;;
81930;SDS011;71395;43.488;1.472;2023-12-14T13:56:50;3.53;;;1.50;;
81930;SDS011;71395;43.488;1.472;2023-12-14T13:59:15;6.30;;;1.20;;
81930;SDS011;71395;43.488;1.472;2023-12-14T14:01:41;3.30;;;0.80;;
81930;SDS011;71395;43.488;1.472;2023-12-14T14:04:06;4.93;;;1.30;;
81930;SDS011;71395;43.488;1.472;2023-12-14T14:06:32;5.45;;;1.13;;
81930;SDS011;71395;43.488;1.472;2023-12-14T14:08:57;5.25;;;1.35;;
81930;SDS011;71395;43.488;1.472;2023-12-14T14:11:23;3.90;;;0.93;;
81930;SDS011;71395;43.488;1.472;2023-12-14T14:13:48;4.82;;;1.08;;
81930;SDS011;71395;43.488;1.472;2023-12-14T14:16:13;7.55;;;1.20;;
81930;SDS011;71395;43.488;1.472;2023-12-14T14:18:39;3.83;;;0.95;;
81930;SDS011;71395;43.488;1.472;2023-12-14T14:21:05;2.95;;;0.85;;
81930;SDS011;71395;43.488;1.472;2023-12-14T14:23:36;4.28;;;1.00;;
81930;SDS011;71395;43.488;1.472;2023-12-14T14:26:02;4.07;;;0.90;;
81930;SDS011;71395;43.488;1.472;2023-12-14T14:28:27;7.13;;;1.00;;
81930;SDS011;71395;43.488;1.472;2023-12-14T14:30:53;4.47;;;0.85;;
81930;SDS011;71395;43.488;1.472;2023-12-14T14:33:19;7.63;;;1.17;;
81930;SDS011;71395;43.488;1.472;2023-12-14T14:35:45;3.88;;;1.10;;
81930;SDS011;71395;43.488;1.472;2023-12-14T14:38:14;5.20;;;1.27;;
81930;SDS011;71395;43.488;1.472;2023-12-14T14:40:40;3.65;;;0.90;;
81930;SDS011;71395;43.488;1.472;2023-12-14T14:43:07;4.05;;;1.17;;
81930;SDS011;71395;43.488;1.472;2023-12-14T14:45:33;3.55;;;1.00;;
81930;SDS011;71395;43.488;1.472;2023-12-14T14:47:58;3.88;;;1.02;;